Normandy, Illinois
Current Conditions -  °F | °C
As of 2:15 PM on Sunday 23 Nov 2014 (Local Time) from KSQI Reporting Station
Overcast Overcast  
Wind Chill: 52°   Ceiling: 1100
Heat Index: 52°   Visibility: 5mi
Dew Point: 48°   Wind: 7mph
Humidity: 88%   Direction: 140°SE
Pressure: 29.44"   Gusts: NA
Location:  41.5523°N, 89.5915°W
Report Text: KSQI 232015Z 14006KT 5SM OVC011 11/09 A2944 RMK AO1
Loading
Personal Weather Stations






























Interactive Weather Map New forecast layout! Learn more

10-Day Weather Forecast

Advertisements
Track Severe Weather on mobile